createdAt,value
2022-10-18T00:00:56.502Z,76.64
2022-10-18T00:03:24.623Z,76.84
2022-10-18T00:05:52.939Z,76.58
2022-10-18T00:08:21.606Z,76.27
2022-10-18T00:10:50.298Z,76.75
2022-10-18T00:13:18.574Z,75.74
2022-10-18T00:15:51.621Z,75.88
2022-10-18T00:18:20.281Z,76.92
2022-10-18T00:20:57.751Z,77.28
2022-10-18T00:23:25.873Z,77.12
2022-10-18T00:26:00.759Z,77.54
2022-10-18T00:28:28.603Z,76.69
2022-10-18T00:30:58.120Z,76.58
2022-10-18T00:33:26.009Z,78.22
2022-10-18T00:35:54.016Z,78.10
2022-10-18T00:38:21.824Z,77.05
2022-10-18T00:40:49.807Z,76.80
2022-10-18T00:43:19.306Z,77.27
2022-10-18T00:45:47.175Z,77.38
2022-10-18T00:48:19.466Z,78.01
2022-10-18T00:50:49.880Z,78.34
2022-10-18T00:53:20.564Z,78.09
2022-10-18T00:55:48.653Z,77.25
2022-10-18T00:58:19.331Z,77.87
2022-10-18T01:00:47.258Z,78.21
2022-10-18T01:03:16.470Z,78.06
2022-10-18T01:05:47.549Z,78.00
2022-10-18T01:08:37.462Z,77.65
2022-10-18T01:11:39.896Z,78.22
2022-10-18T01:14:20.774Z,78.21
2022-10-18T01:16:57.557Z,78.38
2022-10-18T01:20:20.092Z,79.22
2022-10-18T01:22:52.055Z,79.20
2022-10-18T01:25:33.453Z,79.55
2022-10-18T01:28:10.713Z,79.21
2022-10-18T01:30:49.223Z,79.28
2022-10-18T01:33:24.977Z,79.91
2022-10-18T01:35:57.699Z,79.64
2022-10-18T01:38:27.289Z,80.76
2022-10-18T01:40:57.145Z,79.73
2022-10-18T01:43:26.549Z,79.38
2022-10-18T01:45:57.869Z,79.57
2022-10-18T01:48:26.585Z,80.80
2022-10-18T01:50:54.686Z,80.16
2022-10-18T01:53:28.376Z,80.06
2022-10-18T01:56:06.790Z,79.82
2022-10-18T01:58:41.793Z,79.93
2022-10-18T02:01:19.343Z,80.81
2022-10-18T02:03:50.567Z,81.96
2022-10-18T02:06:24.114Z,81.46
2022-10-18T02:08:56.387Z,81.87
2022-10-18T02:11:24.475Z,82.31
2022-10-18T02:13:55.767Z,82.13
2022-10-18T02:16:29.568Z,82.83
2022-10-18T02:19:02.624Z,82.84
2022-10-18T02:21:31.557Z,83.00
2022-10-18T02:24:01.778Z,82.32
2022-10-18T02:26:29.726Z,81.46
2022-10-18T02:28:57.801Z,82.18
2022-10-18T02:31:32.021Z,81.93
2022-10-18T02:34:08.149Z,82.21
2022-10-18T02:36:43.409Z,81.71
2022-10-18T02:39:15.391Z,81.94
2022-10-18T02:41:43.968Z,82.03
2022-10-18T02:44:12.018Z,82.78
2022-10-18T02:46:43.698Z,83.49
2022-10-18T02:49:11.750Z,82.15
2022-10-18T02:51:39.592Z,82.71
2022-10-18T02:54:08.415Z,83.33
2022-10-18T02:56:36.621Z,83.15
2022-10-18T02:59:07.263Z,82.98
2022-10-18T03:01:36.242Z,82.70
2022-10-18T03:04:06.461Z,83.43
2022-10-18T03:06:34.880Z,83.00
2022-10-18T03:09:03.547Z,83.23
2022-10-18T03:11:32.003Z,82.02
2022-10-18T03:13:59.945Z,82.38
2022-10-18T03:16:27.748Z,81.90
2022-10-18T03:18:55.565Z,82.67
2022-10-18T03:21:24.806Z,84.27
2022-10-18T03:23:52.716Z,85.60
2022-10-18T03:26:21.506Z,85.52
2022-10-18T03:28:49.536Z,86.00
2022-10-18T03:31:17.850Z,86.51
2022-10-18T03:33:45.796Z,86.20
2022-10-18T03:36:13.921Z,85.79
2022-10-18T03:38:43.419Z,85.57
2022-10-18T03:41:11.548Z,85.45
2022-10-18T03:43:39.449Z,85.07
2022-10-18T03:46:07.314Z,85.93
2022-10-18T03:48:35.341Z,86.39
2022-10-18T03:51:03.232Z,86.53
2022-10-18T03:53:31.216Z,86.92
2022-10-18T03:56:00.557Z,87.84
2022-10-18T03:58:28.479Z,87.89
2022-10-18T04:00:56.824Z,88.60
2022-10-18T04:03:25.103Z,88.52
2022-10-18T04:05:52.974Z,88.76
2022-10-18T04:08:21.248Z,89.64
2022-10-18T04:10:49.194Z,88.96
2022-10-18T04:13:18.549Z,89.93
2022-10-18T04:15:46.473Z,89.88
2022-10-18T04:18:14.310Z,89.33
2022-10-18T04:20:42.349Z,89.78
2022-10-18T04:23:10.293Z,89.18
2022-10-18T04:25:38.173Z,89.42
2022-10-18T04:28:06.406Z,90.40
2022-10-18T04:30:35.662Z,89.44
2022-10-18T04:33:03.511Z,90.40
2022-10-18T04:35:31.504Z,90.66
2022-10-18T04:37:59.438Z,89.88
2022-10-18T04:40:27.342Z,89.98
2022-10-18T04:42:55.137Z,91.65
2022-10-18T04:45:22.944Z,91.86
2022-10-18T04:47:52.422Z,89.75
2022-10-18T04:50:20.387Z,89.48
2022-10-18T04:55:23.436Z,90.87
2022-10-18T04:57:51.351Z,90.12
2022-10-18T05:00:19.311Z,90.46
2022-10-18T05:02:47.174Z,90.10
2022-10-18T05:05:16.475Z,91.09
2022-10-18T05:07:44.298Z,91.38
2022-10-18T05:10:12.346Z,89.83
2022-10-18T05:12:40.279Z,90.17
2022-10-18T05:15:08.818Z,90.55
2022-10-18T05:17:37.239Z,90.65
2022-10-18T05:20:05.613Z,91.33
2022-10-18T05:22:35.118Z,89.87
2022-10-18T05:25:03.805Z,88.73
2022-10-18T05:27:31.887Z,87.56
2022-10-18T05:30:04.592Z,89.11
2022-10-18T05:32:33.805Z,91.13
2022-10-18T05:35:02.345Z,90.41
2022-10-18T05:37:30.213Z,89.56
2022-10-18T05:39:59.454Z,90.63
2022-10-18T05:42:27.374Z,90.58
2022-10-18T05:44:55.257Z,91.24
2022-10-18T05:47:23.242Z,90.80
2022-10-18T05:49:51.307Z,90.61
2022-10-18T05:52:19.140Z,89.68
2022-10-18T05:54:47.023Z,90.12
2022-10-18T05:57:16.250Z,90.42
2022-10-18T05:59:44.960Z,90.95
2022-10-18T06:02:13.701Z,90.87
2022-10-18T06:04:41.849Z,90.67
2022-10-18T06:07:11.056Z,89.40
2022-10-18T06:09:39.460Z,89.98
2022-10-18T06:12:08.984Z,89.28
2022-10-18T06:14:38.422Z,89.12
2022-10-18T06:17:06.269Z,88.69
2022-10-18T06:19:34.143Z,89.88
2022-10-18T06:22:02.030Z,90.48
2022-10-18T06:24:29.893Z,91.22
2022-10-18T06:26:58.529Z,91.64
2022-10-18T06:29:26.475Z,91.32
2022-10-18T06:31:55.666Z,89.61
2022-10-18T06:34:23.523Z,88.98
2022-10-18T06:36:55.026Z,87.93
2022-10-18T06:39:26.340Z,87.70
2022-10-18T06:41:54.554Z,89.64
2022-10-18T06:44:23.089Z,91.14
2022-10-18T06:46:51.692Z,90.72
2022-10-18T06:49:21.284Z,90.51
2022-10-18T06:51:49.094Z,91.43
2022-10-18T06:54:18.344Z,91.76
2022-10-18T06:56:46.805Z,91.54
2022-10-18T06:59:15.333Z,91.69
2022-10-18T07:01:43.831Z,91.54
2022-10-18T07:04:11.842Z,91.84
2022-10-18T07:06:41.437Z,91.67
2022-10-18T07:09:09.261Z,91.74
2022-10-18T07:11:37.224Z,91.94
2022-10-18T07:14:05.240Z,92.72
2022-10-18T07:16:34.532Z,92.37
2022-10-18T07:19:02.667Z,92.71
2022-10-18T07:21:30.617Z,92.77
2022-10-18T07:23:59.888Z,92.42
2022-10-18T07:26:29.835Z,92.56
2022-10-18T07:29:00.619Z,92.92
2022-10-18T07:31:29.809Z,92.46
2022-10-18T07:33:57.981Z,93.37
2022-10-18T07:36:26.266Z,93.46
2022-10-18T07:38:54.749Z,93.52
2022-10-18T07:41:24.323Z,93.49
2022-10-18T07:43:53.822Z,92.77
2022-10-18T07:46:25.351Z,92.44
2022-10-18T07:48:53.722Z,90.66
2022-10-18T07:51:22.098Z,91.47
2022-10-18T07:53:50.015Z,90.70
2022-10-18T07:56:22.725Z,90.96
2022-10-18T07:58:53.730Z,90.04
2022-10-18T08:01:22.844Z,90.53
2022-10-18T08:03:51.239Z,90.77
2022-10-18T08:06:21.120Z,90.54
2022-10-18T08:08:49.216Z,91.64
2022-10-18T08:11:19.180Z,92.47
2022-10-18T08:13:47.397Z,91.22
2022-10-18T08:16:18.901Z,90.57
2022-10-18T08:18:46.898Z,90.22
2022-10-18T08:21:16.609Z,91.02
2022-10-18T08:23:44.742Z,90.84
2022-10-18T08:26:14.784Z,91.73
2022-10-18T08:28:49.104Z,91.67
2022-10-18T08:31:23.626Z,91.12
2022-10-18T08:33:51.580Z,90.66
2022-10-18T08:36:20.101Z,91.69
2022-10-18T08:38:49.295Z,92.32
2022-10-18T08:41:42.761Z,92.53
2022-10-18T08:44:16.584Z,92.46
2022-10-18T08:46:49.331Z,92.98
2022-10-18T08:49:26.555Z,93.95
2022-10-18T08:51:55.041Z,93.53
2022-10-18T08:54:30.599Z,92.72
2022-10-18T08:57:01.795Z,94.40
2022-10-18T08:59:34.700Z,94.25
2022-10-18T09:02:17.315Z,94.16
2022-10-18T09:04:58.013Z,94.17
2022-10-18T09:07:43.848Z,93.05
2022-10-18T09:10:25.652Z,93.73
2022-10-18T09:13:08.591Z,94.31
2022-10-18T09:15:46.707Z,94.51
2022-10-18T09:18:33.314Z,94.03
2022-10-18T09:21:06.416Z,95.18
2022-10-18T09:23:45.893Z,94.93
2022-10-18T09:26:18.339Z,93.87
2022-10-18T09:28:59.975Z,93.37
2022-10-18T09:31:40.120Z,92.80
2022-10-18T09:34:15.155Z,91.66
2022-10-18T09:36:44.676Z,92.95
2022-10-18T09:39:15.324Z,92.27
2022-10-18T09:41:49.975Z,94.02
2022-10-18T09:44:23.120Z,94.21
2022-10-18T09:46:54.510Z,94.12
2022-10-18T09:49:28.073Z,94.34
2022-10-18T09:51:58.090Z,94.65
2022-10-18T09:54:32.217Z,95.18
2022-10-18T09:57:05.622Z,93.49
2022-10-18T09:59:42.427Z,93.69
2022-10-18T10:02:14.973Z,93.89
2022-10-18T10:04:44.841Z,95.08
2022-10-18T10:07:17.509Z,93.89
2022-10-18T10:09:48.055Z,93.50
2022-10-18T10:12:41.871Z,94.05
2022-10-18T10:15:18.860Z,93.60
2022-10-18T10:17:54.994Z,93.59
2022-10-18T10:20:26.379Z,94.01
2022-10-18T10:22:54.611Z,92.89
2022-10-18T10:25:27.410Z,92.77
2022-10-18T10:27:55.685Z,92.78
2022-10-18T10:30:27.643Z,93.57
2022-10-18T10:32:56.749Z,93.65
2022-10-18T10:38:25.597Z,94.04
2022-10-18T10:40:53.796Z,94.17
2022-10-18T10:43:40.546Z,93.21
2022-10-18T10:46:10.854Z,92.70
2022-10-18T10:48:48.434Z,93.38
2022-10-18T10:51:29.232Z,93.24
2022-10-18T10:54:03.227Z,92.76
2022-10-18T10:56:33.358Z,93.43
2022-10-18T10:59:09.983Z,94.23
2022-10-18T11:01:37.882Z,93.54
2022-10-18T11:04:27.350Z,93.06
2022-10-18T11:07:05.422Z,93.23
2022-10-18T11:09:49.534Z,92.82
2022-10-18T11:12:27.394Z,93.17
2022-10-18T11:15:05.599Z,91.69
2022-10-18T11:17:37.373Z,92.91
2022-10-18T11:20:25.815Z,92.10
2022-10-18T11:23:04.025Z,92.20
2022-10-18T11:25:47.261Z,91.80
2022-10-18T11:28:29.476Z,92.56
2022-10-18T11:31:10.860Z,93.79
2022-10-18T11:34:08.149Z,93.68
2022-10-18T11:36:54.777Z,92.85
2022-10-18T11:39:38.118Z,92.67
2022-10-18T11:42:15.934Z,93.32
2022-10-18T11:44:53.388Z,94.21
2022-10-18T11:47:32.679Z,92.74
2022-10-18T11:50:12.849Z,92.91
2022-10-18T11:52:51.993Z,93.35
2022-10-18T11:55:33.009Z,93.10
2022-10-18T11:58:13.294Z,92.67
2022-10-18T12:00:49.928Z,93.30
2022-10-18T12:03:33.635Z,92.93
2022-10-18T12:06:03.447Z,92.74
2022-10-18T12:08:36.369Z,92.22
2022-10-18T12:11:11.388Z,94.18
2022-10-18T12:13:45.238Z,93.91
2022-10-18T12:16:13.957Z,92.91
2022-10-18T12:21:26.540Z,92.75
2022-10-18T12:23:56.452Z,93.83
2022-10-18T12:26:26.171Z,93.74
2022-10-18T12:29:01.747Z,94.00
2022-10-18T12:31:34.024Z,93.75
2022-10-18T12:34:10.727Z,93.04
2022-10-18T12:36:54.994Z,93.15
2022-10-18T12:39:33.453Z,92.56
2022-10-18T12:42:20.016Z,93.08
2022-10-18T12:45:03.520Z,93.06
2022-10-18T12:47:31.919Z,92.65
2022-10-18T12:50:00.697Z,92.02
2022-10-18T12:52:29.422Z,93.03
2022-10-18T12:55:08.752Z,92.44
2022-10-18T12:57:55.275Z,93.32
2022-10-18T13:00:37.810Z,94.26
2022-10-18T13:03:20.391Z,93.91
2022-10-18T13:05:57.812Z,93.23
2022-10-18T13:08:41.912Z,92.31
2022-10-18T13:11:29.064Z,91.48
2022-10-18T13:14:11.918Z,93.06
2022-10-18T13:16:44.938Z,92.37
2022-10-18T13:19:19.772Z,92.47
2022-10-18T13:21:53.352Z,92.75
2022-10-18T13:24:26.110Z,91.48
2022-10-18T13:27:35.062Z,91.86
2022-10-18T13:30:12.809Z,91.76
2022-10-18T13:32:47.130Z,92.02
2022-10-18T13:35:29.699Z,90.56
2022-10-18T13:38:00.390Z,91.79
2022-10-18T13:40:28.061Z,90.64
2022-10-18T13:42:55.649Z,89.85
2022-10-18T13:45:41.872Z,92.15
2022-10-18T13:48:28.222Z,90.61
2022-10-18T13:50:59.763Z,89.96
2022-10-18T13:53:41.171Z,89.15
2022-10-18T13:56:29.885Z,89.90
2022-10-18T13:59:14.065Z,89.58
2022-10-18T14:01:52.768Z,88.97
2022-10-18T14:04:35.180Z,88.97
2022-10-18T14:07:04.795Z,90.35
2022-10-18T14:09:55.001Z,89.79
2022-10-18T14:12:27.053Z,87.68
2022-10-18T14:14:57.646Z,87.44
2022-10-18T14:17:29.477Z,89.19
2022-10-18T14:19:59.384Z,87.31
2022-10-18T14:22:30.536Z,87.44
2022-10-18T14:24:59.930Z,88.29
2022-10-18T14:27:28.260Z,87.72
2022-10-18T14:30:09.839Z,88.02
2022-10-18T14:32:37.795Z,86.29
2022-10-18T14:35:32.120Z,86.73
2022-10-18T14:37:54.819Z,86.50
2022-10-18T14:40:34.646Z,85.86
2022-10-18T14:43:03.741Z,85.85
2022-10-18T14:45:31.508Z,85.01
2022-10-18T14:48:09.618Z,83.64
2022-10-18T14:50:37.375Z,82.96
2022-10-18T14:53:06.268Z,84.30
2022-10-18T14:55:35.632Z,82.50
2022-10-18T14:58:03.520Z,83.09
2022-10-18T15:00:34.924Z,84.42
2022-10-18T15:03:03.740Z,86.84
2022-10-18T15:05:31.604Z,86.76
2022-10-18T15:08:00.560Z,84.73
2022-10-18T15:10:29.737Z,85.29
2022-10-18T15:13:16.102Z,83.39
2022-10-18T15:15:44.896Z,83.91
2022-10-18T15:18:18.406Z,82.54
2022-10-18T15:20:46.099Z,84.90
2022-10-18T15:23:22.024Z,84.41
2022-10-18T15:25:50.303Z,85.87
2022-10-18T15:28:26.331Z,84.78
2022-10-18T15:30:54.622Z,82.54
2022-10-18T15:33:23.402Z,84.28
2022-10-18T15:35:52.601Z,84.39
2022-10-18T15:38:26.308Z,84.41
2022-10-18T15:40:54.437Z,83.84
2022-10-18T15:43:37.814Z,84.54
2022-10-18T15:46:07.070Z,84.15
2022-10-18T15:48:37.058Z,84.00
2022-10-18T15:51:05.963Z,83.41
2022-10-18T15:53:35.496Z,82.68
2022-10-18T15:56:04.494Z,82.51
2022-10-18T15:58:39.155Z,82.69
2022-10-18T16:01:12.357Z,83.54
2022-10-18T16:03:40.380Z,82.54
2022-10-18T16:06:09.960Z,82.54
2022-10-18T16:08:42.776Z,82.23
2022-10-18T16:11:14.596Z,83.78
2022-10-18T16:13:42.581Z,82.08
2022-10-18T16:16:14.209Z,81.99
2022-10-18T16:18:42.469Z,82.54
2022-10-18T16:21:16.892Z,82.74
2022-10-18T16:23:44.720Z,82.71
2022-10-18T16:26:12.917Z,83.28
2022-10-18T16:28:40.771Z,85.03
2022-10-18T16:31:08.588Z,85.34
2022-10-18T16:33:37.571Z,84.75
2022-10-18T16:36:05.751Z,86.07
2022-10-18T16:38:35.232Z,85.17
2022-10-18T16:41:03.981Z,85.34
2022-10-18T16:43:31.764Z,83.61
2022-10-18T16:45:59.429Z,83.04
2022-10-18T16:48:27.552Z,82.97
2022-10-18T16:50:57.221Z,83.24
2022-10-18T16:53:25.200Z,83.05
2022-10-18T16:55:54.807Z,83.11
2022-10-18T17:00:56.245Z,82.91
2022-10-18T17:03:24.211Z,81.96
2022-10-18T17:05:51.830Z,83.46
2022-10-18T17:08:21.958Z,83.70
2022-10-18T17:10:52.905Z,83.02
2022-10-18T17:13:20.751Z,83.63
2022-10-18T17:15:49.153Z,84.39
2022-10-18T17:18:18.706Z,84.13
2022-10-18T17:20:46.504Z,83.87
2022-10-18T17:23:14.174Z,84.45
2022-10-18T17:25:57.536Z,83.16
2022-10-18T17:28:32.450Z,84.78
2022-10-18T17:31:00.148Z,85.42
2022-10-18T17:33:27.767Z,84.26
2022-10-18T17:35:55.408Z,84.38
2022-10-18T17:38:23.119Z,84.27
2022-10-18T17:40:54.774Z,84.94
2022-10-18T17:43:22.433Z,84.57
2022-10-18T17:45:51.054Z,84.59
2022-10-18T17:48:18.928Z,84.42
2022-10-18T17:50:46.831Z,84.77
2022-10-18T17:53:15.035Z,84.45
2022-10-18T17:55:42.675Z,84.45
2022-10-18T17:58:11.708Z,85.61
2022-10-18T18:00:39.316Z,85.67
2022-10-18T18:03:07.030Z,85.09
2022-10-18T18:05:35.277Z,85.10
2022-10-18T18:08:04.203Z,86.45
2022-10-18T18:10:33.133Z,85.20
2022-10-18T18:13:01.143Z,86.52
2022-10-18T18:15:30.455Z,86.33
2022-10-18T18:17:58.418Z,86.21
2022-10-18T18:20:26.400Z,86.24
2022-10-18T18:22:54.109Z,85.53
2022-10-18T18:25:21.717Z,85.91
2022-10-18T18:27:49.416Z,84.81
2022-10-18T18:30:17.947Z,84.70
2022-10-18T18:32:47.083Z,84.14
2022-10-18T18:35:14.698Z,83.73
2022-10-18T18:37:42.404Z,83.82
2022-10-18T18:40:10.485Z,83.28
2022-10-18T18:42:38.123Z,83.91
2022-10-18T18:45:06.131Z,84.48
2022-10-18T18:47:35.509Z,85.01
2022-10-18T18:50:04.818Z,83.64
2022-10-18T18:52:32.648Z,81.16
2022-10-18T18:55:00.792Z,81.40
2022-10-18T18:57:29.012Z,83.47
2022-10-18T18:59:56.640Z,81.40
2022-10-18T19:02:24.373Z,83.05
2022-10-18T19:04:52.000Z,81.69
2022-10-18T19:07:21.026Z,82.95
2022-10-18T19:09:50.660Z,82.68
2022-10-18T19:12:20.613Z,81.46
2022-10-18T19:14:49.077Z,80.76
2022-10-18T19:17:16.674Z,80.96
2022-10-18T19:19:44.303Z,80.96
2022-10-18T19:22:11.932Z,80.66
2022-10-18T19:24:40.892Z,79.62
2022-10-18T19:27:12.412Z,79.56
2022-10-18T19:29:40.885Z,80.48
2022-10-18T19:32:11.920Z,79.72
2022-10-18T19:34:39.551Z,75.76
2022-10-18T19:37:09.405Z,78.35
2022-10-18T19:39:37.313Z,79.85
2022-10-18T19:42:07.299Z,79.06
2022-10-18T19:44:36.212Z,78.99
2022-10-18T19:47:04.547Z,77.84
2022-10-18T19:49:32.253Z,75.74
2022-10-18T19:52:00.038Z,76.38
2022-10-18T19:54:27.729Z,77.49
2022-10-18T19:56:55.386Z,77.42
2022-10-18T19:59:24.693Z,77.46
2022-10-18T20:01:52.347Z,76.88
2022-10-18T20:04:19.990Z,76.56
2022-10-18T20:06:47.964Z,77.43
2022-10-18T20:09:19.398Z,74.89
2022-10-18T20:11:48.533Z,75.42
2022-10-18T20:14:16.168Z,75.89
2022-10-18T20:16:45.148Z,75.75
2022-10-18T20:19:12.756Z,75.91
2022-10-18T20:21:40.538Z,74.67
2022-10-18T20:24:09.238Z,74.26
2022-10-18T20:26:36.896Z,75.75
2022-10-18T20:29:05.212Z,73.27
2022-10-18T20:31:35.505Z,73.45
2022-10-18T20:34:06.528Z,75.32
2022-10-18T20:36:34.723Z,75.28
2022-10-18T20:39:02.986Z,75.61
2022-10-18T20:41:31.633Z,76.06
2022-10-18T20:44:00.021Z,76.24
2022-10-18T20:46:28.355Z,76.13
2022-10-18T20:48:55.959Z,76.28
2022-10-18T20:51:24.987Z,75.29
2022-10-18T20:53:53.495Z,74.95
2022-10-18T20:56:22.498Z,77.74
2022-10-18T20:58:51.153Z,75.78
2022-10-18T21:01:19.694Z,75.13
2022-10-18T21:03:47.971Z,76.34
2022-10-18T21:06:16.560Z,76.30
2022-10-18T21:08:45.798Z,77.66
2022-10-18T21:11:14.079Z,76.17
2022-10-18T21:13:41.795Z,75.34
2022-10-18T21:16:09.778Z,74.68
2022-10-18T21:18:40.257Z,77.78
2022-10-18T21:21:08.739Z,75.48
2022-10-18T21:23:36.380Z,75.94
2022-10-18T21:26:05.385Z,76.61
2022-10-18T21:28:33.211Z,76.75
2022-10-18T21:31:08.955Z,76.92
2022-10-18T21:33:36.570Z,75.54
2022-10-18T21:36:04.334Z,75.52
2022-10-18T21:38:32.038Z,76.04
2022-10-18T21:40:59.639Z,77.71
2022-10-18T21:43:28.958Z,76.55
2022-10-18T21:46:00.473Z,75.54
2022-10-18T21:48:28.438Z,75.94
2022-10-18T21:50:56.081Z,75.10
2022-10-18T21:53:23.692Z,76.90
2022-10-18T21:55:51.508Z,75.80
2022-10-18T21:58:19.242Z,75.97
2022-10-18T22:00:48.245Z,77.09
2022-10-18T22:03:15.945Z,75.61
2022-10-18T22:05:43.523Z,75.79
2022-10-18T22:08:11.144Z,76.91
2022-10-18T22:10:38.758Z,76.26
2022-10-18T22:13:06.396Z,76.91
2022-10-18T22:15:34.036Z,76.05
2022-10-18T22:18:03.033Z,76.91
2022-10-18T22:20:30.665Z,77.09
2022-10-18T22:22:58.276Z,75.92
2022-10-18T22:25:25.854Z,76.41
2022-10-18T22:27:53.463Z,76.36
2022-10-18T22:30:21.040Z,75.20
2022-10-18T22:32:48.693Z,74.36
2022-10-18T22:35:17.860Z,74.75
2022-10-18T22:37:45.448Z,74.92
2022-10-18T22:40:13.292Z,75.19
2022-10-18T22:42:40.893Z,73.76
2022-10-18T22:45:08.907Z,74.21
2022-10-18T22:47:36.823Z,75.73
2022-10-18T22:50:04.873Z,73.70
2022-10-18T22:52:33.963Z,73.61
2022-10-18T22:55:01.790Z,74.51
2022-10-18T22:57:29.945Z,72.92
2022-10-18T22:59:57.556Z,74.17
2022-10-18T23:02:25.177Z,73.00
2022-10-18T23:04:52.788Z,73.71
2022-10-18T23:07:20.434Z,74.15
2022-10-18T23:09:49.409Z,74.04
2022-10-18T23:12:17.017Z,72.84
2022-10-18T23:14:44.667Z,73.95
2022-10-18T23:17:12.285Z,74.63
2022-10-18T23:19:39.904Z,74.77
2022-10-18T23:22:07.554Z,74.50
2022-10-18T23:24:35.175Z,75.10
2022-10-18T23:27:04.128Z,74.96
2022-10-18T23:29:31.750Z,74.93
2022-10-18T23:31:59.383Z,73.31
2022-10-18T23:34:27.106Z,74.24
2022-10-18T23:36:54.733Z,74.31
2022-10-18T23:39:22.387Z,72.47
2022-10-18T23:41:49.987Z,71.55
2022-10-18T23:44:19.046Z,72.97
2022-10-18T23:46:46.708Z,73.39
2022-10-18T23:49:14.364Z,72.92
2022-10-18T23:51:41.965Z,71.05
2022-10-18T23:54:09.631Z,73.04
2022-10-18T23:56:37.289Z,72.70
2022-10-18T23:59:04.913Z,72.16
